createdAt,value
2022-12-10T00:00:26.861Z,23.99
2022-12-10T00:02:58.013Z,23.97
2022-12-10T00:05:28.130Z,23.97
2022-12-10T00:07:58.150Z,23.96
2022-12-10T00:10:28.552Z,23.95
2022-12-10T00:12:58.675Z,23.95
2022-12-10T00:15:28.832Z,23.95
2022-12-10T00:17:58.905Z,23.94
2022-12-10T00:20:28.852Z,23.94
2022-12-10T00:22:58.851Z,23.92
2022-12-10T00:25:29.431Z,23.92
2022-12-10T00:27:59.597Z,23.92
2022-12-10T00:30:29.747Z,23.91
2022-12-10T00:32:59.788Z,23.91
2022-12-10T00:35:30.259Z,23.89
2022-12-10T00:38:00.421Z,23.90
2022-12-10T00:40:30.589Z,23.89
2022-12-10T00:43:00.745Z,23.88
2022-12-10T00:45:31.025Z,23.87
2022-12-10T00:48:01.256Z,23.86
2022-12-10T00:50:31.760Z,23.86
2022-12-10T00:53:01.915Z,23.85
2022-12-10T00:55:31.962Z,23.85
2022-12-10T00:58:01.866Z,23.83
2022-12-10T01:00:31.862Z,23.82
2022-12-10T01:03:01.833Z,23.82
2022-12-10T01:05:31.820Z,23.82
2022-12-10T01:08:01.857Z,23.81
2022-12-10T01:10:32.061Z,23.80
2022-12-10T01:13:02.097Z,23.79
2022-12-10T01:15:32.192Z,23.79
2022-12-10T01:18:02.392Z,23.78
2022-12-10T01:20:33.675Z,23.77
2022-12-10T01:23:04.245Z,23.77
2022-12-10T01:25:34.620Z,23.76
2022-12-10T01:28:05.791Z,23.75
2022-12-10T01:30:36.676Z,23.75
2022-12-10T01:33:07.825Z,23.74
2022-12-10T01:35:40.469Z,23.73
2022-12-10T01:38:10.646Z,23.72
2022-12-10T01:40:43.604Z,23.71
2022-12-10T01:43:16.091Z,23.71
2022-12-10T01:45:46.083Z,23.71
2022-12-10T01:48:16.297Z,23.70
2022-12-10T01:50:46.299Z,23.70
2022-12-10T01:53:16.372Z,23.68
2022-12-10T01:55:51.455Z,23.67
2022-12-10T01:58:21.639Z,23.67
2022-12-10T02:01:10.656Z,23.67
2022-12-10T02:04:02.154Z,23.65
2022-12-10T02:06:49.137Z,23.65
2022-12-10T02:09:28.263Z,23.64
2022-12-10T02:12:12.883Z,23.63
2022-12-10T02:15:00.950Z,23.62
2022-12-10T02:17:48.527Z,23.61
2022-12-10T02:20:21.435Z,23.61
2022-12-10T02:23:08.766Z,23.60
2022-12-10T02:25:50.226Z,23.58
2022-12-10T02:28:37.487Z,23.59
2022-12-10T02:31:15.215Z,23.58
2022-12-10T02:34:03.159Z,23.57
2022-12-10T02:36:37.874Z,23.55
2022-12-10T02:39:09.255Z,23.55
2022-12-10T02:41:47.299Z,23.53
2022-12-10T02:44:18.910Z,23.54
2022-12-10T02:46:49.053Z,23.54
2022-12-10T02:49:19.797Z,23.53
2022-12-10T02:51:52.725Z,23.52
2022-12-10T02:54:45.440Z,23.51
2022-12-10T02:57:21.117Z,23.51
2022-12-10T03:00:17.521Z,23.49
2022-12-10T03:03:24.151Z,23.49
2022-12-10T03:06:08.069Z,23.49
2022-12-10T03:08:46.879Z,23.48
2022-12-10T03:11:22.756Z,23.47
2022-12-10T03:14:00.571Z,23.46
2022-12-10T03:16:32.578Z,23.49
2022-12-10T03:19:05.147Z,23.50
2022-12-10T03:21:36.499Z,23.52
2022-12-10T03:24:07.471Z,23.54
2022-12-10T03:29:06.515Z,23.65
2022-12-10T03:31:37.158Z,23.62
2022-12-10T03:34:16.126Z,23.63
2022-12-10T03:36:42.167Z,23.68
2022-12-10T03:39:12.338Z,23.70
2022-12-10T03:41:42.595Z,23.74
2022-12-10T03:44:12.562Z,23.78
2022-12-10T03:46:42.670Z,23.81
2022-12-10T03:49:13.670Z,23.85
2022-12-10T03:51:43.746Z,23.88
2022-12-10T03:54:13.887Z,23.92
2022-12-10T03:56:44.012Z,23.92
2022-12-10T03:59:13.899Z,23.91
2022-12-10T04:01:49.454Z,23.92
2022-12-10T04:04:17.697Z,23.92
2022-12-10T04:06:48.058Z,23.93
2022-12-10T04:09:29.720Z,23.92
2022-12-10T04:12:03.656Z,23.93
2022-12-10T04:14:51.529Z,23.92
2022-12-10T04:17:21.504Z,23.91
2022-12-10T04:19:51.521Z,23.93
2022-12-10T04:22:39.085Z,23.93
2022-12-10T04:25:26.440Z,23.94
2022-12-10T04:27:56.590Z,23.94
2022-12-10T04:30:26.741Z,23.94
2022-12-10T04:32:56.903Z,23.94
2022-12-10T04:35:26.844Z,23.93
2022-12-10T04:38:01.681Z,23.93
2022-12-10T04:40:31.055Z,23.93
2022-12-10T04:43:01.082Z,23.92
2022-12-10T04:45:31.368Z,23.93
2022-12-10T04:48:01.492Z,23.92
2022-12-10T04:50:31.735Z,23.91
2022-12-10T04:53:03.349Z,23.90
2022-12-10T04:55:34.208Z,23.90
2022-12-10T04:58:04.799Z,23.90
2022-12-10T05:00:35.515Z,23.89
2022-12-10T05:03:06.379Z,23.88
2022-12-10T05:05:38.041Z,23.87
2022-12-10T05:08:08.653Z,23.87
2022-12-10T05:10:38.893Z,23.87
2022-12-10T05:13:09.045Z,23.86
2022-12-10T05:15:43.070Z,23.86
2022-12-10T05:20:42.767Z,23.89
2022-12-10T05:23:30.918Z,23.84
2022-12-10T05:26:05.947Z,23.83
2022-12-10T05:28:42.733Z,23.83
2022-12-10T05:31:20.400Z,23.82
2022-12-10T05:33:51.004Z,23.80
2022-12-10T05:36:22.617Z,23.80
2022-12-10T05:38:53.041Z,23.79
2022-12-10T05:41:27.531Z,23.79
2022-12-10T05:43:58.234Z,23.78
2022-12-10T05:46:29.722Z,23.76
2022-12-10T05:48:59.892Z,23.76
2022-12-10T05:51:31.553Z,23.76
2022-12-10T05:54:01.487Z,23.75
2022-12-10T05:56:33.076Z,23.74
2022-12-10T05:59:05.019Z,23.74
2022-12-10T06:01:36.815Z,23.73
2022-12-10T06:04:07.614Z,23.71
2022-12-10T06:06:43.183Z,23.73
2022-12-10T06:09:15.460Z,23.72
2022-12-10T06:11:45.628Z,23.72
2022-12-10T06:14:15.472Z,23.71
2022-12-10T06:16:45.341Z,23.69
2022-12-10T06:19:15.434Z,23.68
2022-12-10T06:21:45.661Z,23.67
2022-12-10T06:24:15.557Z,23.66
2022-12-10T06:26:50.560Z,23.66
2022-12-10T06:29:20.639Z,23.65
2022-12-10T06:31:50.765Z,23.65
2022-12-10T06:34:20.677Z,23.64
2022-12-10T06:36:50.805Z,23.63
2022-12-10T06:39:20.822Z,23.63
2022-12-10T06:41:57.580Z,23.61
2022-12-10T06:44:24.299Z,23.60
2022-12-10T06:46:54.373Z,23.60
2022-12-10T06:49:24.443Z,23.60
2022-12-10T06:51:54.570Z,23.58
2022-12-10T06:54:24.477Z,23.58
2022-12-10T06:56:54.958Z,23.58
2022-12-10T06:59:24.830Z,23.57
2022-12-10T07:01:54.814Z,23.56
2022-12-10T07:04:25.002Z,23.56
2022-12-10T07:06:55.023Z,23.54
2022-12-10T07:09:25.858Z,23.54
2022-12-10T07:11:56.184Z,23.53
2022-12-10T07:16:26.514Z,23.56
2022-12-10T07:22:37.631Z,23.50
2022-12-10T07:25:10.754Z,23.48
2022-12-10T07:27:40.929Z,23.48
2022-12-10T07:30:12.704Z,23.47
2022-12-10T07:32:43.333Z,23.46
2022-12-10T07:35:16.642Z,23.43
2022-12-10T07:37:47.925Z,23.44
2022-12-10T07:40:19.798Z,23.42
2022-12-10T07:42:49.717Z,23.42
2022-12-10T07:45:20.035Z,23.41
2022-12-10T07:47:52.963Z,23.39
2022-12-10T07:50:22.782Z,23.39
2022-12-10T07:52:55.675Z,23.37
2022-12-10T07:55:25.709Z,23.38
2022-12-10T08:00:37.180Z,23.35
2022-12-10T08:03:08.738Z,23.35
2022-12-10T08:05:38.848Z,23.34
2022-12-10T08:08:16.205Z,23.33
2022-12-10T08:10:49.347Z,23.31
2022-12-10T08:13:19.482Z,23.30
2022-12-10T08:15:50.983Z,23.29
2022-12-10T08:18:21.093Z,23.29
2022-12-10T08:20:51.189Z,23.28
2022-12-10T08:23:21.618Z,23.28
2022-12-10T08:25:51.810Z,23.26
2022-12-10T08:28:21.975Z,23.25
2022-12-10T08:30:52.340Z,23.24
2022-12-10T08:33:22.663Z,23.23
2022-12-10T08:35:56.903Z,23.22
2022-12-10T08:38:26.894Z,23.21
2022-12-10T08:40:58.441Z,23.20
2022-12-10T08:43:29.302Z,23.19
2022-12-10T08:46:04.437Z,23.18
2022-12-10T08:48:35.095Z,23.17
2022-12-10T08:51:06.902Z,23.16
2022-12-10T08:53:38.497Z,23.15
2022-12-10T08:56:09.604Z,23.15
2022-12-10T08:58:40.346Z,23.14
2022-12-10T09:01:14.272Z,23.12
2022-12-10T09:03:44.587Z,23.11
2022-12-10T09:06:17.159Z,23.11
2022-12-10T09:08:47.616Z,23.10
2022-12-10T09:11:31.738Z,23.10
2022-12-10T09:14:01.726Z,23.08
2022-12-10T09:16:36.404Z,23.08
2022-12-10T09:19:07.089Z,23.08
2022-12-10T09:21:38.613Z,23.06
2022-12-10T09:24:09.797Z,23.05
2022-12-10T09:26:39.910Z,23.04
2022-12-10T09:29:10.448Z,23.03
2022-12-10T09:31:42.691Z,23.01
2022-12-10T09:34:12.821Z,23.01
2022-12-10T09:36:42.900Z,23.00
2022-12-10T09:39:12.912Z,23.00
2022-12-10T09:42:11.147Z,22.98
2022-12-10T09:44:56.183Z,22.98
2022-12-10T09:47:26.638Z,22.97
2022-12-10T09:50:11.618Z,22.95
2022-12-10T09:52:40.656Z,22.96
2022-12-10T09:55:18.910Z,22.95
2022-12-10T09:57:50.960Z,22.93
2022-12-10T10:00:41.183Z,22.91
2022-12-10T10:03:14.117Z,22.91
2022-12-10T10:05:45.828Z,22.90
2022-12-10T10:08:18.608Z,22.90
2022-12-10T10:10:49.151Z,22.89
2022-12-10T10:13:30.873Z,22.88
2022-12-10T10:16:20.448Z,22.88
2022-12-10T10:18:53.477Z,22.86
2022-12-10T10:21:25.702Z,22.86
2022-12-10T10:23:55.764Z,22.85
2022-12-10T10:26:28.171Z,22.84
2022-12-10T10:29:00.588Z,22.83
2022-12-10T10:31:32.502Z,22.83
2022-12-10T10:34:04.573Z,22.82
2022-12-10T10:36:39.193Z,22.82
2022-12-10T10:39:30.934Z,22.77
2022-12-10T10:42:01.645Z,22.77
2022-12-10T10:44:33.521Z,22.77
2022-12-10T10:47:03.612Z,22.76
2022-12-10T10:49:34.324Z,22.76
2022-12-10T10:52:10.750Z,22.74
2022-12-10T10:54:42.578Z,22.74
2022-12-10T10:57:18.733Z,22.74
2022-12-10T10:59:48.680Z,22.73
2022-12-10T11:02:27.392Z,22.63
2022-12-10T11:04:58.975Z,22.71
2022-12-10T11:07:35.221Z,22.71
2022-12-10T11:10:06.629Z,22.69
2022-12-10T11:12:43.221Z,22.64
2022-12-10T11:15:33.682Z,22.68
2022-12-10T11:18:05.100Z,22.68
2022-12-10T11:20:42.473Z,22.67
2022-12-10T11:23:15.270Z,22.59
2022-12-10T11:26:03.228Z,22.65
2022-12-10T11:28:47.947Z,22.64
2022-12-10T11:31:26.133Z,22.64
2022-12-10T11:34:15.071Z,22.62
2022-12-10T11:37:00.095Z,22.61
2022-12-10T11:39:49.345Z,22.61
2022-12-10T11:42:37.348Z,22.61
2022-12-10T11:45:16.113Z,22.60
2022-12-10T11:47:58.198Z,22.58
2022-12-10T11:50:33.893Z,22.57
2022-12-10T11:53:15.945Z,22.56
2022-12-10T11:55:56.286Z,22.55
2022-12-10T11:58:29.133Z,22.54
2022-12-10T12:01:13.950Z,22.54
2022-12-10T12:03:53.176Z,22.53
2022-12-10T12:06:29.608Z,22.52
2022-12-10T12:09:04.892Z,22.52
2022-12-10T12:12:00.614Z,22.53
2022-12-10T12:14:36.853Z,22.55
2022-12-10T12:17:18.789Z,22.57
2022-12-10T12:19:54.681Z,22.63
2022-12-10T12:22:33.077Z,22.68
2022-12-10T12:25:11.813Z,22.74
2022-12-10T12:27:50.517Z,22.79
2022-12-10T12:30:21.300Z,22.84
2022-12-10T12:33:02.729Z,22.88
2022-12-10T12:35:53.554Z,22.93
2022-12-10T12:38:26.393Z,23.02
2022-12-10T12:41:11.047Z,23.09
2022-12-10T12:43:52.205Z,23.14
2022-12-10T12:46:43.144Z,23.18
2022-12-10T12:49:21.666Z,23.22
2022-12-10T12:52:12.173Z,23.27
2022-12-10T12:54:42.727Z,23.30
2022-12-10T12:57:15.420Z,23.35
2022-12-10T12:59:50.888Z,23.39
2022-12-10T13:02:38.807Z,23.42
2022-12-10T13:05:10.513Z,23.45
2022-12-10T13:07:42.258Z,23.50
2022-12-10T13:10:21.387Z,23.54
2022-12-10T13:12:53.594Z,23.57
2022-12-10T13:15:30.713Z,23.62
2022-12-10T13:18:09.035Z,23.65
2022-12-10T15:59:02.156Z,23.77
2022-12-10T16:01:32.167Z,23.76
2022-12-10T16:04:04.020Z,23.76
2022-12-10T16:06:34.526Z,23.75
2022-12-10T16:09:08.599Z,23.75
2022-12-10T16:11:41.992Z,23.75
2022-12-10T16:14:12.705Z,23.74
2022-12-10T16:16:44.964Z,23.73
2022-12-10T16:19:15.812Z,23.74
2022-12-10T16:21:47.688Z,23.72
2022-12-10T16:24:21.333Z,23.71
2022-12-10T16:29:14.983Z,23.74
2022-12-10T16:31:46.125Z,23.68
2022-12-10T16:34:18.653Z,23.68
2022-12-10T16:36:51.327Z,23.68
2022-12-10T16:39:30.614Z,23.67
2022-12-10T16:41:58.024Z,23.66
2022-12-10T16:44:32.747Z,23.65
2022-12-10T16:47:04.668Z,23.65
2022-12-10T16:49:36.996Z,23.62
2022-12-10T16:52:07.888Z,23.63
2022-12-10T16:54:39.008Z,23.62
2022-12-10T16:57:16.267Z,23.61
2022-12-10T16:59:48.510Z,23.60
2022-12-10T17:02:19.715Z,23.59
2022-12-10T17:04:55.816Z,23.58
2022-12-10T17:07:27.521Z,23.57
2022-12-10T17:10:02.058Z,23.57
2022-12-10T17:12:35.006Z,23.56
2022-12-10T17:15:05.697Z,23.55
2022-12-10T17:17:36.649Z,23.55
2022-12-10T17:20:11.826Z,23.52
2022-12-10T17:22:44.200Z,23.52
2022-12-10T17:25:22.206Z,23.52
2022-12-10T17:27:57.698Z,23.51
2022-12-10T17:30:30.484Z,23.51
2022-12-10T17:33:04.803Z,23.51
2022-12-10T17:35:35.478Z,23.49
2022-12-10T17:38:05.706Z,23.48
2022-12-10T17:40:36.624Z,23.49
2022-12-10T17:43:06.964Z,23.49
2022-12-10T17:45:40.492Z,23.48
2022-12-10T17:48:15.554Z,23.46
2022-12-10T17:50:59.310Z,23.45
2022-12-10T17:53:30.659Z,23.44
2022-12-10T17:56:05.387Z,23.44
2022-12-10T17:58:39.247Z,23.43
2022-12-10T18:01:22.557Z,23.43
2022-12-10T18:04:01.582Z,23.39
2022-12-10T18:06:39.630Z,23.42
2022-12-10T18:09:13.034Z,23.41
2022-12-10T18:11:44.799Z,23.39
2022-12-10T18:14:22.873Z,23.39
2022-12-10T18:16:58.780Z,23.40
2022-12-10T18:19:31.897Z,23.38
2022-12-10T18:22:01.821Z,23.37
2022-12-10T18:24:32.306Z,23.37
2022-12-10T18:27:04.422Z,23.36
2022-12-10T18:29:36.716Z,23.35
2022-12-10T18:32:11.871Z,23.35
2022-12-10T18:34:43.552Z,23.35
2022-12-10T18:37:14.053Z,23.36
2022-12-10T18:39:47.544Z,23.38
2022-12-10T18:42:18.930Z,23.38
2022-12-10T18:44:53.931Z,23.41
2022-12-10T18:47:23.886Z,23.43
2022-12-10T18:49:53.808Z,23.47
2022-12-10T18:52:24.609Z,23.49
2022-12-10T18:54:55.275Z,23.52
2022-12-10T18:57:33.995Z,23.56
2022-12-10T18:59:58.430Z,23.58
2022-12-10T19:02:36.245Z,23.62
2022-12-10T19:05:11.813Z,23.66
2022-12-10T19:07:42.029Z,23.70
2022-12-10T19:10:21.451Z,23.74
2022-12-10T19:12:52.805Z,23.75
2022-12-10T19:15:25.503Z,23.74
2022-12-10T19:18:03.891Z,23.73
2022-12-10T19:20:34.480Z,23.72
2022-12-10T19:23:07.356Z,23.72
2022-12-10T19:25:39.707Z,23.73
2022-12-10T19:28:16.176Z,23.74
2022-12-10T19:30:45.453Z,23.73
2022-12-10T19:33:17.857Z,23.73
2022-12-10T19:35:47.750Z,23.74
2022-12-10T19:38:18.042Z,23.74
2022-12-10T19:40:50.943Z,23.73
2022-12-10T19:43:23.744Z,23.73
2022-12-10T19:45:53.899Z,23.74
2022-12-10T19:48:27.196Z,23.74
2022-12-10T19:50:57.784Z,23.73
2022-12-10T19:53:30.294Z,23.73
2022-12-10T19:56:00.328Z,23.73
2022-12-10T19:58:33.179Z,23.73
2022-12-10T20:01:04.774Z,23.73
2022-12-10T20:03:35.539Z,23.72
2022-12-10T20:06:05.853Z,23.74
2022-12-10T20:08:40.054Z,23.73
2022-12-10T20:11:12.932Z,23.73
2022-12-10T20:13:44.974Z,23.73
2022-12-10T20:16:19.324Z,23.73
2022-12-10T20:18:51.500Z,23.73
2022-12-10T20:21:23.171Z,23.73
2022-12-10T20:23:57.130Z,23.72
2022-12-10T20:26:34.327Z,23.72
2022-12-10T20:29:05.846Z,23.71
2022-12-10T20:31:35.966Z,23.71
2022-12-10T20:34:08.278Z,23.71
2022-12-10T20:36:43.564Z,23.70
2022-12-10T20:39:19.738Z,23.71
2022-12-10T20:41:50.127Z,23.68
2022-12-10T20:44:24.129Z,23.68
2022-12-10T20:47:11.448Z,23.68
2022-12-10T20:49:49.075Z,23.67
2022-12-10T20:52:20.937Z,23.66
2022-12-10T20:54:50.884Z,23.66
2022-12-10T20:57:21.082Z,23.65
2022-12-10T20:59:51.441Z,23.65
2022-12-10T21:02:23.712Z,23.64
2022-12-10T21:05:01.500Z,23.63
2022-12-10T21:07:34.114Z,23.62
2022-12-10T21:10:05.990Z,23.62
2022-12-10T21:12:54.328Z,23.60
2022-12-10T21:15:26.106Z,23.60
2022-12-10T21:17:56.567Z,23.61
2022-12-10T21:20:29.496Z,23.58
2022-12-10T21:23:00.098Z,23.59
2022-12-10T21:25:37.053Z,23.57
2022-12-10T21:28:12.314Z,23.57
2022-12-10T21:30:48.363Z,23.56
2022-12-10T21:39:19.173Z,23.54
2022-12-10T21:45:29.491Z,23.52
2022-12-10T21:48:04.874Z,23.51
2022-12-10T21:50:37.353Z,23.49
2022-12-10T21:53:08.071Z,23.48
2022-12-10T21:55:43.794Z,23.47
2022-12-10T21:58:21.428Z,23.44
2022-12-10T22:01:05.031Z,23.47
2022-12-10T22:03:39.752Z,23.44
2022-12-10T22:06:27.336Z,23.44
2022-12-10T22:09:00.833Z,23.43
2022-12-10T22:11:31.262Z,23.41
2022-12-10T22:14:01.917Z,23.42
2022-12-10T22:16:48.769Z,23.41
2022-12-10T22:22:33.320Z,23.39
2022-12-10T22:25:08.462Z,23.39
2022-12-10T22:27:38.956Z,23.39
2022-12-10T22:30:11.094Z,23.38
2022-12-10T22:32:51.047Z,23.38
2022-12-10T22:35:33.238Z,23.36
2022-12-10T22:38:18.697Z,23.36
2022-12-10T22:40:51.472Z,23.35
2022-12-10T22:43:50.520Z,23.36
2022-12-10T22:46:11.085Z,23.34
2022-12-10T22:48:50.145Z,23.34
2022-12-10T22:51:23.046Z,23.33
2022-12-10T22:57:03.169Z,23.32
2022-12-10T22:59:33.284Z,23.29
2022-12-10T23:02:16.342Z,23.30
2022-12-10T23:04:51.086Z,23.29
2022-12-10T23:07:23.863Z,23.28
2022-12-10T23:10:06.216Z,23.26
2022-12-10T23:13:20.907Z,23.26
2022-12-10T23:15:55.397Z,23.25
2022-12-10T23:18:45.606Z,23.25
2022-12-10T23:24:21.677Z,23.27
2022-12-10T23:30:12.285Z,23.21
2022-12-10T23:32:43.182Z,23.19
2022-12-10T23:41:15.563Z,23.16
2022-12-10T23:43:57.607Z,23.16
2022-12-10T23:46:35.507Z,23.18
2022-12-10T23:49:13.631Z,23.19
2022-12-10T23:51:52.975Z,23.21
2022-12-10T23:57:20.256Z,23.27
2022-12-10T23:59:55.688Z,23.30
